الصفحة الرئيسية
METAR-TAF:

METAR-TAF

مطار :

Safford, أريزونا, الولايات المتحدة

دائرة عرض: 32-51-26N, خط طول: 109-38-08W, ارتفاع: 968 متر

مراقبة الطقس الحالي

تاريخ ووقت الإصدار 42 دقيقة قبل الساعة 10:51UTC
ريح 8 عقدة من الشرق
درجة الحرارة 18°درجة مئوية
الرطوبة 26%
ضغط 1024 hPa
الرؤية: 16.1 كم
سماء صافية

METAR: KSAD 291051Z AUTO 10008KT 10SM CLR 18/M02 A3025 RMK AO2 SLP198 T01831022

زمن: 04:33 (11:33 UTC)


TAF: مفقودة

أرصاد الطقس والتوقعات من أكثر من 4000 مطار (تقارير الطقس للمطار METAR والتنبؤ بالطقس بالمطارTAF).

المحطات المتاحة هي النقط الصفراء والحمراء على الخريطة.

حرك المؤشر فوق النقطة لمعرفة اسم المحطة.

ثم انقر لمعرفة أرصاد وتوقعات الطقس.

لتغيير الخارطة: اضغط على الأزرار الخضراء مع رمز الصليب الأسود للتكبير. على الزر الأخضر مع شرطة للتصغير، أو على الأسهم الخضراء للخرائط المجاورة.


METAR-TAF: